Terminal Aerodrome Forecast
Issued by NWS Greer, SC

Home | Current Version | Previous Version | Graphics & Text | Print | Product List | Glossary On
Versions: 1 2 3 4 5 6 7 8 9 10 11 12 13 14 15 16 17 18 19 20 21 22 23 24 25 26 27 28 29 30 31
000
FTUS42 KGSP 011747
TAFAVL
TAF
KAVL 011747Z 0118/0218 30005KT P6SM VCTS BKN035CB
      TEMPO 0123/0202 3SM TSRA OVC020CB
     FM020200 30008KT P6SM -SHRA SCT020 BKN045
     FM020400 33004KT P6SM OVC050
     FM020900 34003KT 5SM BR BKN035
     FM021400 26004KT P6SM BKN035 PROB30 0214/0217 4SM TSRA
      BKN025CB=

USA.gov is the U.S. government's official web portal to all federal, state and local government web resources and services.